createdAt,value
2023-04-15T00:01:23.508Z,7.5
2023-04-15T00:04:11.701Z,7.5
2023-04-15T00:06:59.425Z,7.4
2023-04-15T00:09:47.115Z,7.4
2023-04-15T00:12:34.684Z,7.4
2023-04-15T00:15:22.442Z,7.4
2023-04-15T00:18:10.214Z,7.4
2023-04-15T00:20:57.981Z,7.4
2023-04-15T00:23:45.493Z,7.4
2023-04-15T00:26:33.400Z,7.3
2023-04-15T00:29:20.895Z,7.3
2023-04-15T00:32:08.523Z,7.2
2023-04-15T00:34:56.236Z,7.2
2023-04-15T00:37:45.980Z,7.2
2023-04-15T00:40:34.031Z,7.2
2023-04-15T00:43:21.791Z,7.2
2023-04-15T00:46:09.559Z,7.1
2023-04-15T00:48:57.349Z,7
2023-04-15T00:51:45.444Z,7
2023-04-15T00:54:33.067Z,7
2023-04-15T00:57:20.652Z,6.9
2023-04-15T01:00:08.382Z,6.9
2023-04-15T01:02:56.429Z,6.9
2023-04-15T01:05:44.483Z,6.8
2023-04-15T01:08:32.177Z,6.8
2023-04-15T01:11:19.770Z,6.8
2023-04-15T01:14:07.347Z,6.8
2023-04-15T01:16:55.157Z,6.7
2023-04-15T01:19:42.811Z,6.7
2023-04-15T01:22:30.517Z,6.7
2023-04-15T01:25:18.222Z,6.6
2023-04-15T01:28:05.830Z,6.6
2023-04-15T01:30:53.482Z,6.6
2023-04-15T01:33:41.164Z,6.6
2023-04-15T01:36:28.795Z,6.6
2023-04-15T01:39:16.394Z,6.5
2023-04-15T01:42:04.106Z,6.5
2023-04-15T01:44:51.787Z,6.5
2023-04-15T01:47:39.479Z,6.5
2023-04-15T01:50:27.400Z,6.5
2023-04-15T01:53:14.931Z,6.4
2023-04-15T01:56:02.692Z,6.4
2023-04-15T01:58:50.402Z,6.4
2023-04-15T02:01:38.257Z,6.3
2023-04-15T02:04:25.965Z,6.3
2023-04-15T02:07:13.800Z,6.3
2023-04-15T02:10:01.490Z,6.3
2023-04-15T02:12:49.392Z,6.3
2023-04-15T02:15:37.041Z,6.3
2023-04-15T02:18:24.987Z,6.3
2023-04-15T02:21:12.715Z,6.3
2023-04-15T02:24:00.435Z,6.3
2023-04-15T02:26:48.021Z,6.3
2023-04-15T02:29:35.938Z,6.3
2023-04-15T02:32:23.866Z,6.3
2023-04-15T02:35:11.728Z,6.3
2023-04-15T02:37:59.428Z,6.2
2023-04-15T02:40:47.088Z,6.2
2023-04-15T02:43:34.623Z,6.2
2023-04-15T02:46:22.325Z,6.1
2023-04-15T02:49:10.137Z,6.1
2023-04-15T02:51:57.821Z,6
2023-04-15T02:54:45.377Z,6
2023-04-15T02:57:32.977Z,5.9
2023-04-15T03:00:20.552Z,5.9
2023-04-15T03:03:08.652Z,5.8
2023-04-15T03:05:56.834Z,5.8
2023-04-15T03:08:44.563Z,5.8
2023-04-15T03:11:32.246Z,5.7
2023-04-15T03:14:19.923Z,5.7
2023-04-15T03:17:07.462Z,5.6
2023-04-15T03:19:55.354Z,5.6
2023-04-15T03:22:43.232Z,5.6
2023-04-15T03:25:30.874Z,5.6
2023-04-15T03:28:18.490Z,5.5
2023-04-15T03:31:06.351Z,5.5
2023-04-15T03:33:54.056Z,5.5
2023-04-15T03:36:41.757Z,5.5
2023-04-15T03:39:29.980Z,5.5
2023-04-15T03:42:17.604Z,5.5
2023-04-15T03:45:05.273Z,5.5
2023-04-15T03:47:52.998Z,5.6
2023-04-15T03:50:40.802Z,5.6
2023-04-15T03:53:28.408Z,5.6
2023-04-15T03:56:16.227Z,5.6
2023-04-15T03:59:04.016Z,5.6
2023-04-15T04:01:51.668Z,5.6
2023-04-15T04:04:39.739Z,5.6
2023-04-15T04:07:27.550Z,5.6
2023-04-15T04:10:15.824Z,5.6
2023-04-15T04:13:03.737Z,5.6
2023-04-15T04:15:51.474Z,5.6
2023-04-15T04:18:39.303Z,5.6
2023-04-15T04:21:27.029Z,5.6
2023-04-15T04:24:14.714Z,5.7
2023-04-15T04:27:02.571Z,5.7
2023-04-15T04:29:50.277Z,5.7
2023-04-15T04:32:38.525Z,5.7
2023-04-15T04:35:26.358Z,5.7
2023-04-15T04:38:15.208Z,5.7
2023-04-15T04:41:02.946Z,5.6
2023-04-15T04:43:50.652Z,5.6
2023-04-15T04:46:38.611Z,5.6
2023-04-15T04:49:26.344Z,5.6
2023-04-15T04:52:13.980Z,5.6
2023-04-15T04:55:01.786Z,5.6
2023-04-15T04:57:49.420Z,5.6
2023-04-15T05:00:37.191Z,5.6
2023-04-15T05:03:25.393Z,5.6
2023-04-15T05:06:13.354Z,5.6
2023-04-15T05:09:01.190Z,5.6
2023-04-15T05:11:49.322Z,5.6
2023-04-15T05:14:36.965Z,5.7
2023-04-15T05:17:24.670Z,5.7
2023-04-15T05:20:12.629Z,5.7
2023-04-15T05:23:00.418Z,5.7
2023-04-15T05:25:48.136Z,5.8
2023-04-15T05:28:35.862Z,5.8
2023-04-15T05:31:23.637Z,5.8
2023-04-15T05:34:11.567Z,5.9
2023-04-15T05:36:59.439Z,5.9
2023-04-15T05:39:47.115Z,6
2023-04-15T05:42:34.944Z,6
2023-04-15T05:45:22.732Z,6.1
2023-04-15T05:48:10.533Z,6.1
2023-04-15T05:50:58.269Z,6.2
2023-04-15T05:53:46.044Z,6.3
2023-04-15T05:56:33.744Z,6.4
2023-04-15T05:59:22.204Z,6.5
2023-04-15T06:02:10.050Z,6.6
2023-04-15T06:04:58.114Z,6.7
2023-04-15T06:07:48.009Z,6.9
2023-04-15T06:10:36.472Z,7
2023-04-15T06:13:24.552Z,7.2
2023-04-15T06:16:12.263Z,7.4
2023-04-15T06:19:00.347Z,7.5
2023-04-15T06:21:48.520Z,7.8
2023-04-15T06:24:36.233Z,8
2023-04-15T06:27:23.929Z,8.2
2023-04-15T06:30:11.708Z,8.5
2023-04-15T06:32:59.460Z,8.8
2023-04-15T06:35:47.279Z,8.9
2023-04-15T06:38:34.962Z,9
2023-04-15T06:41:22.868Z,9.2
2023-04-15T06:44:10.573Z,9.3
2023-04-15T06:46:58.410Z,9.5
2023-04-15T06:49:46.146Z,9.8
2023-04-15T06:52:33.972Z,10.1
2023-04-15T06:55:21.704Z,10.6
2023-04-15T06:58:09.407Z,11
2023-04-15T07:00:57.314Z,11.3
2023-04-15T07:03:45.309Z,11.7
2023-04-15T07:06:33.040Z,12.1
2023-04-15T07:09:20.721Z,12.2
2023-04-15T07:12:08.403Z,12.7
2023-04-15T07:14:56.275Z,13.3
2023-04-15T07:17:44.186Z,13.9
2023-04-15T07:20:32.224Z,14
2023-04-15T07:23:19.932Z,14
2023-04-15T07:26:07.686Z,13.9
2023-04-15T07:28:55.464Z,14.1
2023-04-15T07:31:43.422Z,14.6
2023-04-15T07:34:32.161Z,14.9
2023-04-15T07:37:20.554Z,15
2023-04-15T07:40:08.181Z,14.9
2023-04-15T07:42:55.857Z,14.9
2023-04-15T07:45:43.670Z,15.3
2023-04-15T07:48:31.645Z,15.9
2023-04-15T07:51:19.437Z,16
2023-04-15T07:54:07.101Z,15.8
2023-04-15T07:56:54.729Z,15.6
2023-04-15T07:59:42.564Z,15.5
2023-04-15T08:02:30.314Z,15.3
2023-04-15T08:05:18.304Z,15.2
2023-04-15T08:08:06.380Z,14.9
2023-04-15T08:10:54.009Z,14.5
2023-04-15T08:13:41.682Z,14.4
2023-04-15T08:16:29.442Z,14.4
2023-04-15T08:19:17.301Z,14.6
2023-04-15T08:22:05.158Z,14.8
2023-04-15T08:25:07.486Z,15
2023-04-15T08:27:55.191Z,15.1
2023-04-15T08:30:42.759Z,15.3
2023-04-15T08:33:30.450Z,15.3
2023-04-15T08:36:18.027Z,15.2
2023-04-15T08:39:05.786Z,15.4
2023-04-15T08:41:53.740Z,16
2023-04-15T08:44:41.480Z,16.7
2023-04-15T08:47:29.218Z,17.4
2023-04-15T08:50:16.948Z,17.8
2023-04-15T08:53:04.420Z,18.2
2023-04-15T08:55:52.263Z,18.3
2023-04-15T08:58:39.938Z,18.3
2023-04-15T09:01:27.856Z,18.1
2023-04-15T09:04:15.787Z,18.1
2023-04-15T09:07:03.697Z,18.2
2023-04-15T09:09:51.265Z,18.1
2023-04-15T09:12:38.930Z,18.4
2023-04-15T09:15:26.841Z,18.5
2023-04-15T09:18:14.424Z,18.3
2023-04-15T09:21:02.097Z,18.3
2023-04-15T09:23:49.730Z,18.4
2023-04-15T09:26:37.312Z,18.9
2023-04-15T09:29:24.960Z,18.9
2023-04-15T09:32:12.614Z,18.8
2023-04-15T09:35:00.198Z,19.2
2023-04-15T09:38:00.323Z,20.2
2023-04-15T09:40:47.892Z,20.6
2023-04-15T09:43:35.524Z,20.6
2023-04-15T09:46:23.359Z,20
2023-04-15T09:49:11.211Z,19.3
2023-04-15T09:52:05.465Z,18.3
2023-04-15T09:54:54.350Z,17.6
2023-04-15T09:57:42.144Z,17.2
2023-04-15T10:00:29.755Z,17.2
2023-04-15T10:03:17.690Z,16.9
2023-04-15T10:06:05.896Z,16.6
2023-04-15T10:08:53.562Z,16.4
2023-04-15T10:11:41.245Z,16.4
2023-04-15T10:14:29.493Z,16.5
2023-04-15T10:17:17.351Z,16.5
2023-04-15T10:20:05.126Z,16.9
2023-04-15T10:22:52.981Z,17.6
2023-04-15T10:25:40.622Z,18.4
2023-04-15T10:28:28.206Z,18.7
2023-04-15T10:31:15.893Z,18.7
2023-04-15T10:34:03.637Z,18.8
2023-04-15T10:36:52.188Z,19.3
2023-04-15T10:39:39.898Z,19.5
2023-04-15T10:42:27.727Z,19.4
2023-04-15T10:45:15.355Z,19.7
2023-04-15T10:48:03.674Z,20
2023-04-15T10:50:51.640Z,20.3
2023-04-15T10:53:39.396Z,20.3
2023-04-15T10:56:27.054Z,19.9
2023-04-15T10:59:14.657Z,19.2
2023-04-15T11:02:02.496Z,18.4
2023-04-15T11:04:50.464Z,17.6
2023-04-15T11:07:38.238Z,17.2
2023-04-15T11:10:26.029Z,16.7
2023-04-15T11:13:13.900Z,16.2
2023-04-15T11:16:01.860Z,15.8
2023-04-15T11:18:50.028Z,15.3
2023-04-15T11:21:37.869Z,14.9
2023-04-15T11:24:25.446Z,14.6
2023-04-15T11:27:13.275Z,14.4
2023-04-15T11:30:01.095Z,14.2
2023-04-15T11:32:49.012Z,13.9
2023-04-15T11:35:36.760Z,13.8
2023-04-15T11:38:24.521Z,13.8
2023-04-15T11:41:15.182Z,13.9
2023-04-15T11:44:03.162Z,14.1
2023-04-15T11:46:51.405Z,14.5
2023-04-15T11:49:39.235Z,14.8
2023-04-15T11:52:26.811Z,15
2023-04-15T11:55:14.507Z,14.9
2023-04-15T11:58:02.277Z,14.6
2023-04-15T12:00:50.095Z,14.5
2023-04-15T12:03:38.228Z,14.3
2023-04-15T12:06:26.455Z,14.1
2023-04-15T12:09:14.275Z,13.9
2023-04-15T12:12:02.117Z,13.7
2023-04-15T12:14:49.960Z,13.5
2023-04-15T12:17:50.857Z,13.4
2023-04-15T12:20:40.060Z,13.2
2023-04-15T12:23:27.742Z,13.2
2023-04-15T12:26:15.348Z,13.3
2023-04-15T12:29:02.990Z,13.3
2023-04-15T12:31:50.676Z,13.3
2023-04-15T12:34:38.480Z,13.4
2023-04-15T12:37:26.239Z,13.4
2023-04-15T12:40:14.080Z,13.4
2023-04-15T12:43:01.655Z,13.4
2023-04-15T12:45:49.281Z,13.4
2023-04-15T12:48:36.918Z,13.5
2023-04-15T12:51:24.590Z,13.5
2023-04-15T12:54:12.379Z,13.5
2023-04-15T12:57:00.050Z,13.4
2023-04-15T12:59:47.641Z,13.2
2023-04-15T13:02:35.742Z,13.1
2023-04-15T13:05:24.071Z,12.9
2023-04-15T13:08:15.835Z,12.8
2023-04-15T13:11:03.790Z,12.7
2023-04-15T13:13:51.494Z,12.7
2023-04-15T13:16:39.667Z,12.7
2023-04-15T13:19:27.677Z,12.5
2023-04-15T13:22:15.334Z,12.5
2023-04-15T13:25:03.140Z,12.5
2023-04-15T13:27:50.763Z,12.5
2023-04-15T13:30:38.691Z,12.6
2023-04-15T13:33:26.338Z,12.7
2023-04-15T13:36:14.039Z,12.6
2023-04-15T13:39:01.617Z,12.6
2023-04-15T13:41:49.324Z,12.5
2023-04-15T13:44:37.139Z,12.5
2023-04-15T13:47:24.983Z,12.5
2023-04-15T13:50:12.757Z,12.5
2023-04-15T13:53:00.486Z,12.5
2023-04-15T13:55:50.682Z,12.3
2023-04-15T13:58:38.556Z,12.2
2023-04-15T14:01:26.427Z,12.1
2023-04-15T14:04:14.678Z,12
2023-04-15T14:07:03.981Z,11.9
2023-04-15T14:09:54.607Z,11.9
2023-04-15T14:12:42.357Z,11.8
2023-04-15T14:15:30.197Z,11.7
2023-04-15T14:18:18.004Z,11.6
2023-04-15T14:21:05.587Z,11.6
2023-04-15T14:23:53.224Z,11.7
2023-04-15T14:26:40.997Z,11.7
2023-04-15T14:29:28.563Z,11.9
2023-04-15T14:32:39.708Z,11.9
2023-04-15T14:35:27.625Z,11.9
2023-04-15T14:38:15.328Z,11.9
2023-04-15T14:41:02.999Z,11.9
2023-04-15T14:43:50.741Z,11.9
2023-04-15T14:46:38.468Z,11.7
2023-04-15T14:49:26.316Z,11.7
2023-04-15T14:52:14.084Z,11.5
2023-04-15T14:55:01.869Z,11.5
2023-04-15T14:57:49.563Z,11.4
2023-04-15T15:00:37.227Z,11.5
2023-04-15T15:03:25.008Z,11.5
2023-04-15T15:06:13.317Z,11.5
2023-04-15T15:09:00.999Z,11.5
2023-04-15T15:11:48.794Z,11.7
2023-04-15T15:14:36.487Z,11.7
2023-04-15T15:17:24.299Z,11.6
2023-04-15T15:20:12.069Z,11.5
2023-04-15T15:22:59.759Z,11.5
2023-04-15T15:25:47.396Z,11.5
2023-04-15T15:28:35.116Z,11.4
2023-04-15T15:31:22.949Z,11.3
2023-04-15T15:34:12.935Z,11.2
2023-04-15T15:37:00.513Z,11.1
2023-04-15T15:39:48.222Z,11.1
2023-04-15T15:42:35.923Z,11.1
2023-04-15T15:45:23.553Z,11.2
2023-04-15T15:48:11.292Z,11.2
2023-04-15T15:50:59.142Z,11.2
2023-04-15T15:53:46.721Z,11.1
2023-04-15T15:56:34.565Z,11.1
2023-04-15T15:59:22.480Z,11
2023-04-15T16:02:10.204Z,10.9
2023-04-15T16:04:58.330Z,10.8
2023-04-15T16:07:46.075Z,10.7
2023-04-15T16:10:33.653Z,10.7
2023-04-15T16:13:21.307Z,10.6
2023-04-15T16:16:09.083Z,10.6
2023-04-15T16:18:56.956Z,10.5
2023-04-15T16:21:44.477Z,10.5
2023-04-15T16:24:33.810Z,10.4
2023-04-15T16:27:22.570Z,10.3
2023-04-15T16:30:10.335Z,10.2
2023-04-15T16:32:58.100Z,10.1
2023-04-15T16:35:45.884Z,10.1
2023-04-15T16:38:33.521Z,10
2023-04-15T16:41:21.268Z,9.9
2023-04-15T16:44:08.888Z,9.8
2023-04-15T16:46:56.784Z,9.7
2023-04-15T16:49:44.729Z,9.7
2023-04-15T16:52:32.548Z,9.6
2023-04-15T16:55:20.168Z,9.5
2023-04-15T16:58:30.694Z,9.5
2023-04-15T17:01:18.621Z,9.5
2023-04-15T17:04:06.789Z,9.5
2023-04-15T17:06:54.809Z,9.5
2023-04-15T17:09:42.634Z,9.4
2023-04-15T17:12:30.278Z,9.4
2023-04-15T18:06:28.636Z,9.2
2023-04-15T18:09:16.400Z,8.9
2023-04-15T18:12:04.184Z,8.9
2023-04-15T18:15:02.766Z,8.9
2023-04-15T18:17:50.876Z,8.9
2023-04-15T18:20:38.694Z,8.8
2023-04-15T18:23:26.513Z,8.7
2023-04-15T18:26:14.245Z,8.6
2023-04-15T18:29:02.047Z,8.6
2023-04-15T18:31:49.793Z,8.5
2023-04-15T18:34:37.569Z,8.5
2023-04-15T18:37:25.229Z,8.5
2023-04-15T18:40:12.947Z,8.5
2023-04-15T18:43:00.602Z,8.5
2023-04-15T18:45:48.343Z,8.5
2023-04-15T18:48:36.229Z,8.4
2023-04-15T18:51:24.071Z,8.5
2023-04-15T18:54:11.887Z,8.4
2023-04-15T18:56:59.722Z,8.4
2023-04-15T18:59:58.691Z,8.4
2023-04-15T19:02:46.743Z,8.4
2023-04-15T19:05:34.716Z,8.4
2023-04-15T19:08:22.583Z,8.4
2023-04-15T19:11:10.368Z,8.4
2023-04-15T19:13:58.169Z,8.4
2023-04-15T19:16:45.980Z,8.4
2023-04-15T19:19:34.122Z,8.4
2023-04-15T19:22:21.856Z,8.3
2023-04-15T19:25:09.494Z,8.3
2023-04-15T19:27:58.408Z,8.3
2023-04-15T19:30:47.916Z,8.3
2023-04-15T19:33:35.741Z,8.3
2023-04-15T19:36:23.388Z,8.3
2023-04-15T19:39:11.088Z,8.3
2023-04-15T19:41:58.792Z,8.3
2023-04-15T19:44:46.373Z,8.3
2023-04-15T19:47:34.226Z,8.3
2023-04-15T19:50:22.045Z,8.3
2023-04-15T19:53:09.692Z,8.3
2023-04-15T19:55:57.350Z,8.3
2023-04-15T19:58:45.142Z,8.2
2023-04-15T20:01:32.994Z,8.2
2023-04-15T20:04:21.408Z,8.1
2023-04-15T20:07:09.312Z,8.1
2023-04-15T20:09:57.139Z,8
2023-04-15T20:13:21.327Z,8
2023-04-15T20:16:09.194Z,7.9
2023-04-15T20:18:56.903Z,8
2023-04-15T20:21:44.766Z,8
2023-04-15T20:24:32.869Z,7.9
2023-04-15T20:27:20.546Z,7.8
2023-04-15T20:30:08.228Z,7.8
2023-04-15T20:32:55.868Z,7.8
2023-04-15T20:35:43.645Z,7.8
2023-04-15T20:38:31.394Z,7.8
2023-04-15T20:41:19.063Z,7.8
2023-04-15T20:44:06.840Z,7.8
2023-04-15T20:46:55.067Z,7.8
2023-04-15T20:49:42.759Z,7.8
2023-04-15T20:52:30.560Z,7.8
2023-04-15T20:55:18.359Z,7.8
2023-04-15T20:58:06.064Z,7.8
2023-04-15T21:00:55.248Z,7.8
2023-04-15T21:03:43.741Z,7.8
2023-04-15T21:06:31.821Z,7.8
2023-04-15T21:09:19.447Z,7.8
2023-04-15T21:12:25.689Z,7.8
2023-04-15T21:15:13.299Z,7.8
2023-04-15T21:18:01.179Z,7.8
2023-04-15T21:20:49.772Z,7.8
2023-04-15T21:23:39.457Z,7.8
2023-04-15T21:26:27.240Z,7.8
2023-04-15T21:29:15.158Z,7.8
2023-04-15T21:32:03.164Z,7.7
2023-04-15T21:34:51.054Z,7.7
2023-04-15T21:37:38.666Z,7.7
2023-04-15T21:40:26.575Z,7.7
2023-04-15T21:43:14.144Z,7.7
2023-04-15T21:46:21.526Z,7.7
2023-04-15T21:49:13.108Z,7.8
2023-04-15T21:52:00.787Z,7.8
2023-04-15T21:54:48.423Z,7.8
2023-04-15T21:57:36.147Z,7.8
2023-04-15T22:00:23.887Z,7.8
2023-04-15T22:03:11.894Z,7.8
2023-04-15T22:05:59.739Z,7.8
2023-04-15T22:08:55.794Z,7.8
2023-04-15T22:11:58.810Z,7.8
2023-04-15T22:14:46.503Z,7.8
2023-04-15T22:17:34.508Z,7.8
2023-04-15T22:20:22.513Z,7.8
2023-04-15T22:23:12.662Z,7.8
2023-04-15T22:26:00.296Z,7.8
2023-04-15T22:28:47.924Z,7.8
2023-04-15T22:31:35.907Z,7.7
2023-04-15T22:34:23.742Z,7.7
2023-04-15T22:37:11.557Z,7.7
2023-04-15T22:39:59.370Z,7.7
2023-04-15T22:42:47.148Z,7.7
2023-04-15T22:45:34.653Z,7.8
2023-04-15T22:48:22.610Z,7.8
2023-04-15T22:51:10.700Z,7.8
2023-04-15T22:53:58.393Z,7.8
2023-04-15T22:56:46.038Z,7.8
2023-04-15T22:59:33.743Z,7.8
2023-04-15T23:02:21.557Z,7.8
2023-04-15T23:05:12.509Z,7.8
2023-04-15T23:08:01.160Z,7.8
2023-04-15T23:10:49.155Z,7.7
2023-04-15T23:13:36.818Z,7.8
2023-04-15T23:16:24.628Z,7.7
2023-04-15T23:19:12.417Z,7.7
2023-04-15T23:22:00.255Z,7.8
2023-04-15T23:24:47.834Z,7.8
2023-04-15T23:27:35.543Z,7.8
2023-04-15T23:30:23.295Z,7.8
2023-04-15T23:33:11.130Z,7.8
2023-04-15T23:35:58.819Z,7.8
2023-04-15T23:38:46.489Z,7.8
2023-04-15T23:41:34.178Z,7.8
2023-04-15T23:44:22.033Z,7.8
2023-04-15T23:47:09.911Z,7.8
2023-04-15T23:49:57.627Z,7.8
2023-04-15T23:52:45.176Z,7.8
2023-04-15T23:55:32.961Z,7.8
2023-04-15T23:58:20.678Z,7.8
